createdAt,value
2022-08-29T00:00:29.871Z,47.28
2022-08-29T00:03:02.601Z,47.36
2022-08-29T00:05:40.103Z,47.39
2022-08-29T00:08:11.240Z,47.47
2022-08-29T00:10:43.060Z,47.55
2022-08-29T00:13:13.557Z,47.53
2022-08-29T00:15:45.154Z,47.79
2022-08-29T00:18:19.714Z,47.54
2022-08-29T00:20:51.101Z,47.80
2022-08-29T00:23:20.215Z,47.79
2022-08-29T00:25:48.562Z,48.01
2022-08-29T00:28:17.185Z,48.02
2022-08-29T00:30:45.503Z,47.87
2022-08-29T00:33:13.470Z,47.81
2022-08-29T00:35:44.071Z,47.99
2022-08-29T00:38:14.451Z,48.33
2022-08-29T00:40:51.229Z,48.06
2022-08-29T00:43:30.503Z,48.08
2022-08-29T00:46:19.648Z,47.92
2022-08-29T00:48:54.671Z,48.01
2022-08-29T00:51:23.986Z,47.87
2022-08-29T00:53:59.856Z,47.60
2022-08-29T00:56:29.788Z,47.58
2022-08-29T00:59:13.134Z,47.56
2022-08-29T01:01:41.197Z,47.54
2022-08-29T01:04:15.845Z,47.62
2022-08-29T01:06:54.022Z,47.71
2022-08-29T01:09:24.590Z,47.74
2022-08-29T01:12:12.081Z,47.83
2022-08-29T01:14:48.131Z,47.84
2022-08-29T01:17:25.934Z,47.92
2022-08-29T01:20:25.214Z,47.82
2022-08-29T01:23:02.282Z,47.84
2022-08-29T01:25:36.783Z,47.90
2022-08-29T01:28:33.070Z,47.79
2022-08-29T01:31:14.088Z,47.76
2022-08-29T01:34:00.359Z,47.65
2022-08-29T01:37:07.770Z,47.75
2022-08-29T01:39:39.755Z,47.69
2022-08-29T01:42:17.527Z,47.72
2022-08-29T01:45:00.823Z,47.68
2022-08-29T01:47:35.325Z,47.66
2022-08-29T01:50:31.243Z,47.74
2022-08-29T01:53:01.092Z,47.73
2022-08-29T01:55:28.872Z,47.86
2022-08-29T01:57:56.783Z,47.97
2022-08-29T02:00:24.790Z,48.00
2022-08-29T02:02:52.836Z,47.98
2022-08-29T02:05:23.556Z,48.05
2022-08-29T02:07:51.763Z,48.03
2022-08-29T02:10:20.326Z,47.90
2022-08-29T02:12:48.545Z,47.67
2022-08-29T02:15:19.040Z,47.61
2022-08-29T02:17:49.527Z,47.36
2022-08-29T02:20:19.327Z,47.45
2022-08-29T02:22:47.101Z,47.43
2022-08-29T02:25:34.763Z,47.31
2022-08-29T02:28:03.639Z,47.18
2022-08-29T02:30:31.502Z,47.15
2022-08-29T02:33:00.002Z,46.92
2022-08-29T02:35:35.065Z,47.04
2022-08-29T02:38:04.759Z,46.95
2022-08-29T02:40:33.623Z,47.00
2022-08-29T02:43:05.944Z,46.86
2022-08-29T02:45:37.598Z,46.73
2022-08-29T02:48:06.042Z,46.66
2022-08-29T02:50:37.206Z,46.56
2022-08-29T02:53:06.955Z,46.44
2022-08-29T02:55:35.236Z,46.62
2022-08-29T02:58:03.439Z,46.41
2022-08-29T03:00:33.708Z,46.40
2022-08-29T03:03:02.791Z,46.43
2022-08-29T03:05:35.001Z,46.34
2022-08-29T03:08:11.733Z,46.17
2022-08-29T03:10:40.823Z,46.14
2022-08-29T03:13:11.571Z,46.08
2022-08-29T03:15:40.885Z,45.98
2022-08-29T03:18:09.031Z,46.12
2022-08-29T03:20:38.375Z,45.97
2022-08-29T03:23:09.858Z,46.08
2022-08-29T03:25:40.254Z,46.09
2022-08-29T03:28:10.320Z,46.31
2022-08-29T03:30:38.921Z,46.25
2022-08-29T03:33:09.911Z,46.17
2022-08-29T03:35:40.607Z,46.12
2022-08-29T03:38:09.589Z,46.13
2022-08-29T03:40:42.663Z,46.05
2022-08-29T03:43:11.616Z,46.14
2022-08-29T03:45:39.883Z,46.17
2022-08-29T03:48:08.266Z,46.14
2022-08-29T03:50:37.465Z,46.03
2022-08-29T03:53:05.444Z,46.32
2022-08-29T03:55:34.521Z,46.35
2022-08-29T03:58:03.799Z,46.44
2022-08-29T04:00:33.047Z,46.31
2022-08-29T04:03:02.072Z,46.25
2022-08-29T04:05:30.025Z,46.34
2022-08-29T04:08:00.346Z,46.36
2022-08-29T04:10:33.505Z,46.39
2022-08-29T04:13:03.708Z,46.40
2022-08-29T04:15:34.398Z,46.58
2022-08-29T04:18:08.240Z,46.47
2022-08-29T04:20:44.995Z,46.41
2022-08-29T04:23:14.707Z,46.59
2022-08-29T04:25:44.723Z,46.55
2022-08-29T04:28:15.313Z,46.68
2022-08-29T04:30:52.733Z,46.59
2022-08-29T04:33:25.522Z,46.80
2022-08-29T04:35:53.907Z,46.97
2022-08-29T04:38:23.120Z,46.96
2022-08-29T04:40:50.954Z,46.94
2022-08-29T04:43:20.492Z,46.95
2022-08-29T04:45:56.360Z,47.01
2022-08-29T04:48:24.817Z,47.31
2022-08-29T04:51:01.581Z,47.43
2022-08-29T04:53:31.010Z,47.60
2022-08-29T04:56:05.149Z,47.69
2022-08-29T04:58:41.246Z,47.68
2022-08-29T05:01:17.910Z,47.75
2022-08-29T05:03:46.433Z,48.04
2022-08-29T05:06:22.504Z,48.24
2022-08-29T05:08:59.081Z,48.48
2022-08-29T05:11:31.805Z,48.47
2022-08-29T05:14:01.960Z,48.38
2022-08-29T05:16:31.864Z,48.34
2022-08-29T05:18:59.847Z,48.03
2022-08-29T05:21:35.268Z,47.91
2022-08-29T05:24:10.623Z,47.64
2022-08-29T05:26:45.117Z,47.48
2022-08-29T05:29:14.413Z,47.34
2022-08-29T05:31:44.504Z,47.29
2022-08-29T05:34:34.034Z,47.32
2022-08-29T05:37:06.955Z,47.00
2022-08-29T05:39:38.551Z,46.91
2022-08-29T05:42:09.103Z,46.83
2022-08-29T05:44:39.367Z,46.96
2022-08-29T05:47:11.204Z,46.73
2022-08-29T05:49:42.075Z,46.88
2022-08-29T05:52:12.695Z,46.77
2022-08-29T05:54:42.636Z,47.24
2022-08-29T05:57:18.761Z,46.94
2022-08-29T05:59:53.355Z,46.68
2022-08-29T06:02:23.988Z,46.63
2022-08-29T06:04:52.469Z,46.09
2022-08-29T06:07:21.588Z,46.34
2022-08-29T06:09:53.136Z,46.23
2022-08-29T06:12:25.628Z,46.32
2022-08-29T06:14:55.134Z,46.45
2022-08-29T06:17:23.564Z,46.54
2022-08-29T06:19:52.804Z,46.57
2022-08-29T06:22:22.399Z,46.43
2022-08-29T06:24:57.719Z,46.36
2022-08-29T06:27:26.624Z,46.49
2022-08-29T06:29:54.635Z,46.56
2022-08-29T06:32:23.690Z,46.65
2022-08-29T06:34:51.581Z,46.56
2022-08-29T06:37:19.488Z,46.45
2022-08-29T06:39:49.018Z,46.37
2022-08-29T06:42:19.036Z,46.42
2022-08-29T06:44:51.921Z,46.23
2022-08-29T06:47:21.677Z,46.08
2022-08-29T06:49:49.616Z,45.86
2022-08-29T06:52:17.764Z,45.52
2022-08-29T06:54:45.710Z,45.21
2022-08-29T06:57:14.539Z,45.18
2022-08-29T06:59:42.680Z,45.05
2022-08-29T07:02:10.675Z,44.96
2022-08-29T07:04:38.601Z,44.81
2022-08-29T07:07:12.858Z,44.41
2022-08-29T07:09:41.629Z,44.37
2022-08-29T07:12:09.756Z,44.57
2022-08-29T07:14:37.903Z,44.39
2022-08-29T07:17:06.744Z,44.50
2022-08-29T07:19:35.772Z,44.32
2022-08-29T07:22:07.216Z,44.26
2022-08-29T07:24:36.590Z,44.06
2022-08-29T07:27:04.737Z,44.05
2022-08-29T07:29:33.031Z,44.14
2022-08-29T07:32:03.132Z,44.00
2022-08-29T07:34:31.352Z,43.65
2022-08-29T07:36:59.562Z,43.55
2022-08-29T07:39:27.675Z,43.48
2022-08-29T07:41:55.520Z,43.33
2022-08-29T07:44:24.551Z,43.52
2022-08-29T07:47:00.536Z,43.06
2022-08-29T07:49:40.609Z,43.26
2022-08-29T07:52:09.629Z,43.21
2022-08-29T07:54:39.424Z,42.91
2022-08-29T07:57:07.393Z,42.88
2022-08-29T07:59:35.646Z,42.60
2022-08-29T08:02:03.864Z,42.54
2022-08-29T08:04:31.686Z,42.55
2022-08-29T08:07:00.730Z,42.66
2022-08-29T08:09:28.773Z,42.37
2022-08-29T08:11:57.585Z,42.35
2022-08-29T08:14:34.772Z,41.99
2022-08-29T08:17:04.076Z,41.78
2022-08-29T08:19:31.958Z,41.93
2022-08-29T08:22:00.986Z,41.75
2022-08-29T08:24:30.395Z,41.80
2022-08-29T08:26:59.628Z,41.58
2022-08-29T08:29:27.921Z,41.29
2022-08-29T08:31:59.931Z,41.43
2022-08-29T08:34:29.459Z,41.52
2022-08-29T08:36:58.700Z,41.33
2022-08-29T08:39:27.215Z,41.27
2022-08-29T08:42:11.018Z,41.04
2022-08-29T08:45:10.885Z,41.20
2022-08-29T08:48:20.624Z,41.19
2022-08-29T08:51:03.810Z,40.73
2022-08-29T08:53:43.696Z,40.50
2022-08-29T08:56:37.220Z,40.40
2022-08-29T08:59:28.644Z,40.32
2022-08-29T09:02:39.402Z,40.47
2022-08-29T09:05:29.098Z,40.20
2022-08-29T09:08:44.595Z,40.12
2022-08-29T09:11:51.354Z,40.01
2022-08-29T09:14:55.218Z,39.86
2022-08-29T09:17:37.723Z,39.83
2022-08-29T09:20:30.071Z,39.65
2022-08-29T09:23:31.714Z,39.62
2022-08-29T09:25:59.622Z,39.78
2022-08-29T09:28:27.571Z,39.54
2022-08-29T09:31:27.652Z,39.21
2022-08-29T09:34:11.720Z,39.31
2022-08-29T09:36:52.072Z,39.06
2022-08-29T09:39:21.642Z,39.24
2022-08-29T09:41:57.514Z,38.78
2022-08-29T09:44:34.171Z,39.04
2022-08-29T09:47:13.518Z,38.69
2022-08-29T09:50:17.851Z,38.58
2022-08-29T09:52:59.685Z,38.53
2022-08-29T09:55:46.056Z,38.45
2022-08-29T09:58:19.102Z,38.22
2022-08-29T10:01:19.305Z,38.24
2022-08-29T10:04:05.454Z,38.33
2022-08-29T10:06:45.225Z,37.84
2022-08-29T10:09:35.476Z,38.00
2022-08-29T10:12:15.422Z,37.73
2022-08-29T10:14:56.448Z,37.46
2022-08-29T10:17:57.140Z,37.79
2022-08-29T10:20:52.612Z,37.58
2022-08-29T10:23:46.222Z,37.45
2022-08-29T10:26:33.816Z,37.26
2022-08-29T10:29:32.333Z,37.33
2022-08-29T10:32:51.798Z,37.36
2022-08-29T10:35:30.998Z,37.08
2022-08-29T10:38:34.391Z,36.91
2022-08-29T10:41:29.684Z,36.90
2022-08-29T10:44:36.764Z,36.71
2022-08-29T10:47:39.201Z,36.30
2022-08-29T10:50:43.987Z,36.16
2022-08-29T10:53:27.627Z,36.45
2022-08-29T10:56:24.478Z,36.00
2022-08-29T10:59:28.907Z,36.08
2022-08-29T11:02:23.833Z,35.66
2022-08-29T11:04:59.990Z,35.48
2022-08-29T11:07:40.593Z,34.95
2022-08-29T11:10:27.160Z,34.94
2022-08-29T11:13:10.546Z,35.07
2022-08-29T11:15:48.993Z,34.88
2022-08-29T11:18:47.186Z,34.92
2022-08-29T11:21:24.818Z,35.04
2022-08-29T11:23:58.572Z,35.28
2022-08-29T11:27:03.057Z,34.80
2022-08-29T11:29:49.202Z,34.43
2022-08-29T11:32:43.517Z,34.55
2022-08-29T11:35:23.332Z,34.51
2022-08-29T11:38:12.870Z,34.75
2022-08-29T11:41:28.078Z,34.55
2022-08-29T11:44:10.467Z,34.66
2022-08-29T11:46:53.266Z,34.57
2022-08-29T11:49:32.538Z,34.34
2022-08-29T11:52:12.830Z,33.76
2022-08-29T11:54:45.396Z,34.13
2022-08-29T11:57:13.369Z,33.62
2022-08-29T11:59:57.051Z,33.48
2022-08-29T12:02:28.499Z,33.27
2022-08-29T12:05:07.636Z,33.46
2022-08-29T12:07:37.439Z,33.50
2022-08-29T12:10:12.941Z,33.40
2022-08-29T12:12:47.546Z,33.25
2022-08-29T12:15:27.604Z,33.14
2022-08-29T12:18:13.444Z,32.75
2022-08-29T12:20:49.010Z,32.62
2022-08-29T12:23:49.251Z,32.56
2022-08-29T12:26:47.062Z,33.12
2022-08-29T12:29:41.082Z,32.71
2022-08-29T12:32:48.200Z,32.66
2022-08-29T12:35:48.867Z,32.67
2022-08-29T12:39:24.028Z,32.63
2022-08-29T12:42:07.482Z,32.51
2022-08-29T12:44:39.824Z,32.59
2022-08-29T12:47:28.823Z,32.28
2022-08-29T12:50:01.865Z,32.56
2022-08-29T12:52:38.098Z,32.25
2022-08-29T12:55:42.353Z,32.36
2022-08-29T12:58:14.252Z,32.37
2022-08-29T13:00:53.196Z,31.96
2022-08-29T13:03:22.654Z,31.86
2022-08-29T13:05:51.233Z,31.59
2022-08-29T13:08:37.600Z,31.75
2022-08-29T13:11:11.575Z,31.86
2022-08-29T13:13:41.945Z,31.74
2022-08-29T13:16:29.865Z,31.83
2022-08-29T13:19:11.000Z,31.38
2022-08-29T13:21:41.095Z,31.33
2022-08-29T13:24:21.596Z,31.17
2022-08-29T13:27:05.330Z,31.36
2022-08-29T13:29:39.921Z,31.55
2022-08-29T13:32:17.845Z,31.26
2022-08-29T13:35:20.863Z,31.34
2022-08-29T13:38:11.526Z,31.21
2022-08-29T13:40:55.449Z,31.27
2022-08-29T13:43:43.338Z,30.92
2022-08-29T13:46:26.239Z,30.90
2022-08-29T13:49:06.046Z,30.88
2022-08-29T13:51:34.382Z,31.02
2022-08-29T13:54:02.503Z,30.65
2022-08-29T13:56:33.755Z,30.64
2022-08-29T13:59:03.310Z,30.39
2022-08-29T14:02:08.211Z,30.40
2022-08-29T14:04:37.245Z,30.36
2022-08-29T14:07:09.492Z,30.25
2022-08-29T14:09:45.525Z,30.56
2022-08-29T14:12:17.057Z,30.20
2022-08-29T14:14:46.114Z,30.27
2022-08-29T14:17:18.878Z,30.14
2022-08-29T14:19:47.114Z,29.93
2022-08-29T14:22:15.436Z,29.60
2022-08-29T14:24:51.866Z,29.66
2022-08-29T14:27:33.159Z,29.64
2022-08-29T14:30:01.659Z,29.60
2022-08-29T14:32:30.002Z,29.66
2022-08-29T14:34:58.621Z,29.38
2022-08-29T14:37:26.913Z,29.24
2022-08-29T14:39:56.608Z,29.32
2022-08-29T14:42:26.601Z,29.15
2022-08-29T14:44:55.045Z,29.29
2022-08-29T14:47:24.068Z,29.18
2022-08-29T14:49:52.532Z,29.10
2022-08-29T14:52:20.482Z,29.13
2022-08-29T14:54:49.312Z,29.02
2022-08-29T14:57:18.334Z,28.93
2022-08-29T14:59:48.122Z,28.77
2022-08-29T15:02:16.485Z,28.70
2022-08-29T15:04:46.529Z,28.85
2022-08-29T15:07:15.881Z,28.97
2022-08-29T15:09:44.648Z,28.58
2022-08-29T15:12:15.658Z,28.89
2022-08-29T15:14:46.105Z,28.89
2022-08-29T15:17:15.355Z,28.73
2022-08-29T15:22:53.763Z,29.07
2022-08-29T15:25:35.936Z,28.85
2022-08-29T15:28:17.483Z,28.99
2022-08-29T15:30:53.976Z,28.77
2022-08-29T15:33:24.220Z,28.86
2022-08-29T15:35:53.873Z,28.74
2022-08-29T15:38:22.860Z,28.66
2022-08-29T15:40:51.941Z,28.66
2022-08-29T15:43:20.069Z,28.76
2022-08-29T15:45:48.979Z,28.65
2022-08-29T15:48:18.121Z,28.65
2022-08-29T15:50:47.084Z,28.78
2022-08-29T15:53:15.072Z,28.61
2022-08-29T15:55:44.503Z,28.51
2022-08-29T15:58:12.756Z,28.52
2022-08-29T16:00:41.164Z,28.61
2022-08-29T16:03:10.179Z,28.27
2022-08-29T16:05:40.335Z,28.41
2022-08-29T16:08:16.409Z,28.39
2022-08-29T16:10:45.245Z,28.36
2022-08-29T16:13:13.193Z,28.37
2022-08-29T16:15:44.044Z,28.40
2022-08-29T16:18:12.222Z,28.56
2022-08-29T16:20:43.085Z,28.48
2022-08-29T16:23:12.047Z,28.53
2022-08-29T16:25:44.160Z,28.33
2022-08-29T16:28:13.040Z,28.33
2022-08-29T16:30:44.359Z,28.29
2022-08-29T16:33:14.248Z,28.22
2022-08-29T16:35:42.622Z,28.20
2022-08-29T16:38:14.194Z,28.29
2022-08-29T16:40:42.323Z,28.09
2022-08-29T16:43:10.394Z,28.18
2022-08-29T16:45:39.677Z,28.06
2022-08-29T16:48:14.297Z,28.23
2022-08-29T16:50:44.052Z,28.39
2022-08-29T16:53:14.115Z,28.09
2022-08-29T16:55:43.596Z,28.22
2022-08-29T16:58:30.681Z,28.23
2022-08-29T17:00:59.111Z,28.12
2022-08-29T17:03:27.152Z,28.19
2022-08-29T17:05:56.555Z,28.22
2022-08-29T17:08:25.026Z,28.30
2022-08-29T17:10:52.927Z,28.07
2022-08-29T17:13:20.918Z,28.61
2022-08-29T17:15:49.434Z,28.55
2022-08-29T17:18:19.553Z,28.33
2022-08-29T17:20:49.231Z,28.48
2022-08-29T17:23:19.303Z,28.67
2022-08-29T17:25:48.112Z,28.50
2022-08-29T17:28:18.665Z,28.63
2022-08-29T17:30:49.287Z,28.56
2022-08-29T17:33:20.350Z,28.52
2022-08-29T17:35:49.899Z,28.65
2022-08-29T17:38:19.840Z,28.75
2022-08-29T17:40:49.550Z,28.58
2022-08-29T17:43:20.660Z,28.72
2022-08-29T17:45:49.714Z,28.92
2022-08-29T17:48:20.759Z,28.91
2022-08-29T17:50:51.345Z,28.94
2022-08-29T17:53:21.453Z,28.97
2022-08-29T17:55:51.241Z,28.67
2022-08-29T17:58:22.104Z,28.66
2022-08-29T18:00:50.627Z,29.28
2022-08-29T18:03:19.869Z,29.31
2022-08-29T18:05:50.908Z,29.26
2022-08-29T18:08:19.206Z,30.02
2022-08-29T18:10:48.320Z,30.86
2022-08-29T18:13:21.018Z,31.27
2022-08-29T18:15:52.590Z,31.32
2022-08-29T18:18:21.654Z,31.98
2022-08-29T18:20:50.197Z,32.29
2022-08-29T18:23:20.400Z,32.98
2022-08-29T18:25:49.063Z,32.95
2022-08-29T18:28:17.951Z,32.85
2022-08-29T18:30:48.596Z,33.12
2022-08-29T18:33:17.104Z,33.25
2022-08-29T18:35:46.233Z,33.50
2022-08-29T18:38:17.515Z,33.86
2022-08-29T18:40:53.764Z,33.94
2022-08-29T18:43:22.821Z,34.49
2022-08-29T18:45:51.091Z,34.62
2022-08-29T18:48:19.578Z,34.69
2022-08-29T18:50:48.754Z,34.97
2022-08-29T18:53:21.454Z,34.84
2022-08-29T18:55:52.665Z,35.41
2022-08-29T18:58:28.322Z,35.75
2022-08-29T19:00:58.268Z,36.17
2022-08-29T19:03:26.866Z,36.19
2022-08-29T19:05:54.982Z,36.45
2022-08-29T19:08:25.201Z,36.32
2022-08-29T19:10:55.329Z,36.07
2022-08-29T19:13:25.203Z,36.35
2022-08-29T19:15:59.659Z,36.28
2022-08-29T19:18:28.284Z,35.98
2022-08-29T19:21:02.942Z,35.82
2022-08-29T19:23:39.777Z,35.88
2022-08-29T19:26:16.153Z,35.69
2022-08-29T19:28:45.223Z,35.05
2022-08-29T19:31:17.320Z,34.82
2022-08-29T19:33:46.662Z,34.91
2022-08-29T19:36:15.524Z,34.71
2022-08-29T19:38:44.590Z,34.55
2022-08-29T19:41:13.207Z,34.46
2022-08-29T19:43:42.371Z,34.22
2022-08-29T19:46:18.084Z,34.05
2022-08-29T19:48:50.970Z,34.30
2022-08-29T19:51:24.461Z,34.38
2022-08-29T19:53:57.339Z,34.34
2022-08-29T19:56:26.961Z,34.21
2022-08-29T19:58:57.276Z,34.31
2022-08-29T20:01:26.618Z,34.36
2022-08-29T20:03:55.547Z,34.47
2022-08-29T20:06:24.481Z,34.40
2022-08-29T20:08:53.871Z,34.25
2022-08-29T20:11:26.765Z,34.19
2022-08-29T20:13:59.735Z,34.14
2022-08-29T20:16:33.978Z,34.37
2022-08-29T20:19:05.354Z,34.59
2022-08-29T20:21:35.911Z,34.60
2022-08-29T20:24:05.670Z,34.83
2022-08-29T20:26:38.552Z,34.76
2022-08-29T20:29:10.779Z,34.80
2022-08-29T20:31:40.624Z,35.04
2022-08-29T20:34:09.649Z,35.38
2022-08-29T20:37:00.016Z,35.38
2022-08-29T20:39:28.367Z,35.50
2022-08-29T20:42:00.315Z,35.63
2022-08-29T20:44:33.964Z,35.76
2022-08-29T20:47:03.020Z,35.96
2022-08-29T20:49:32.095Z,35.82
2022-08-29T20:52:03.138Z,35.87
2022-08-29T20:54:32.518Z,35.77
2022-08-29T20:57:01.069Z,35.59
2022-08-29T20:59:34.471Z,35.54
2022-08-29T21:02:05.169Z,35.24
2022-08-29T21:04:52.090Z,35.59
2022-08-29T21:07:21.393Z,36.01
2022-08-29T21:09:51.055Z,36.28
2022-08-29T21:12:27.499Z,36.34
2022-08-29T21:14:56.278Z,36.32
2022-08-29T21:17:25.861Z,36.17
2022-08-29T21:19:53.706Z,36.35
2022-08-29T21:22:24.961Z,36.21
2022-08-29T21:24:58.321Z,36.19
2022-08-29T21:27:26.891Z,36.29
2022-08-29T21:29:58.707Z,36.62
2022-08-29T21:32:27.858Z,37.00
2022-08-29T21:34:56.597Z,37.08
2022-08-29T21:37:25.341Z,37.28
2022-08-29T21:39:53.397Z,37.31
2022-08-29T21:42:21.825Z,37.56
2022-08-29T21:44:50.953Z,37.88
2022-08-29T21:47:21.610Z,37.97
2022-08-29T21:49:52.073Z,37.96
2022-08-29T21:52:20.766Z,38.03
2022-08-29T21:54:53.992Z,38.20
2022-08-29T21:57:41.640Z,38.16
2022-08-29T22:00:11.646Z,38.27
2022-08-29T22:02:42.320Z,38.29
2022-08-29T22:05:10.854Z,38.53
2022-08-29T22:07:40.854Z,38.84
2022-08-29T22:10:15.287Z,38.94
2022-08-29T22:12:43.455Z,39.02
2022-08-29T22:15:31.267Z,39.29
2022-08-29T22:17:59.150Z,39.09
2022-08-29T22:20:28.350Z,39.37
2022-08-29T22:22:56.599Z,39.19
2022-08-29T22:25:26.193Z,39.12
2022-08-29T22:27:55.523Z,38.97
2022-08-29T22:30:32.102Z,38.96
2022-08-29T22:33:01.762Z,38.79
2022-08-29T22:35:30.199Z,39.06
2022-08-29T22:37:59.150Z,39.06
2022-08-29T22:40:27.841Z,39.23
2022-08-29T22:42:58.466Z,39.08
2022-08-29T22:45:26.814Z,39.37
2022-08-29T22:47:55.202Z,39.41
2022-08-29T22:50:25.101Z,40.02
2022-08-29T22:52:59.326Z,39.91
2022-08-29T22:57:57.557Z,39.59
2022-08-29T23:00:27.168Z,39.83
2022-08-29T23:02:57.076Z,39.35
2022-08-29T23:05:26.481Z,39.83
2022-08-29T23:07:54.343Z,40.00
2022-08-29T23:10:24.165Z,40.04
2022-08-29T23:12:53.091Z,40.02
2022-08-29T23:15:20.925Z,40.17
2022-08-29T23:17:49.119Z,40.13
2022-08-29T23:20:20.304Z,40.02
2022-08-29T23:22:49.322Z,40.61
2022-08-29T23:25:18.065Z,40.21
2022-08-29T23:27:46.372Z,40.42
2022-08-29T23:30:16.759Z,40.40
2022-08-29T23:32:45.634Z,40.31
2022-08-29T23:35:15.245Z,40.42
2022-08-29T23:37:43.621Z,40.24
2022-08-29T23:40:12.390Z,40.34
2022-08-29T23:42:41.402Z,40.36
2022-08-29T23:45:10.999Z,40.48
2022-08-29T23:47:38.891Z,40.37
2022-08-29T23:50:09.456Z,40.33
2022-08-29T23:52:38.808Z,40.65
2022-08-29T23:55:08.011Z,40.44
2022-08-29T23:57:37.256Z,40.62
